Time;durP1;ratioP1;P1;durP2;ratioP2;P2;SDS_P1;SDS_P2;PMS_P1;PMS_P2;Temp;Humidity;BMP_temperature;BMP_pressure;BME280_temperature;BME280_humidity;BME280_pressure;Samples;Min_cycle;Max_cycle;Signal;HPM_P1;HPM_P2
2023/10/11 00:01:22;;;;;;;1.50;1.38;;;;;;;13.94;97.02;100205.06;5097514;28;20055;-72
2023/10/11 00:03:53;;;;;;;3.95;3.55;;;;;;;13.96;97.27;100217.00;5097562;28;20496;-73
2023/10/11 00:06:24;;;;;;;3.50;2.67;;;;;;;13.96;97.05;100213.63;5097479;28;20067;-72
2023/10/11 00:08:53;;;;;;;;;;;;;;;13.96;97.04;100205.91;5097821;28;20047;-72
2023/10/11 00:11:27;;;;;;;3.13;2.80;;;;;;;13.96;97.24;100208.47;5097387;28;20324;-72
2023/10/11 00:13:56;;;;;;;2.95;2.30;;;;;;;13.94;97.17;100203.34;5097654;28;20086;-72
2023/10/11 00:16:27;;;;;;;1.93;1.33;;;;;;;13.97;97.03;100210.16;5097295;28;20040;-73
2023/10/11 00:18:57;;;;;;;4.03;2.55;;;;;;;13.96;97.11;100206.75;5097056;28;20109;-72
2023/10/11 00:21:40;;;;;;;1.60;1.45;;;;;;;13.98;97.12;100217.03;5097105;28;20055;-73
2023/10/11 00:24:10;;;;;;;3.15;2.50;;;;;;;13.97;97.19;100207.59;5097446;28;20493;-73
2023/10/11 00:26:40;;;;;;;4.85;2.83;;;;;;;13.98;97.66;100202.47;5097673;28;20477;-72
2023/10/11 00:29:11;;;;;;;4.03;2.63;;;;;;;13.99;97.75;100198.19;5096989;28;20044;-72
2023/10/11 00:31:40;;;;;;;6.03;3.60;;;;;;;13.99;97.37;100205.88;5096757;28;20136;-72
2023/10/11 00:34:12;;;;;;;4.57;2.90;;;;;;;13.95;97.69;100191.38;5097193;28;20039;-72
2023/10/11 00:36:49;;;;;;;3.53;3.17;;;;;;;13.96;97.81;100188.78;5096319;28;20525;-72
2023/10/11 00:39:18;;;;;;;2.03;1.88;;;;;;;13.98;97.71;100196.50;5095964;28;20124;-72
2023/10/11 00:41:49;;;;;;;2.55;1.92;;;;;;;14.00;97.96;100197.31;5096674;28;20052;-73
2023/10/11 00:44:20;;;;;;;2.75;2.55;;;;;;;13.98;97.47;100188.78;5096868;28;20052;-73
2023/10/11 00:46:59;;;;;;;3.63;2.15;;;;;;;13.98;97.76;100196.50;5096729;28;20133;-72
2023/10/11 00:49:36;;;;;;;2.47;2.28;;;;;;;14.00;97.35;100195.63;5095413;28;20044;-73
2023/10/11 00:52:07;;;;;;;2.03;1.88;;;;;;;14.01;97.34;100196.47;5096887;28;20464;-72
2023/10/11 00:54:43;;;;;;;3.33;2.80;;;;;;;14.01;97.70;100197.31;5096518;28;20150;-73
2023/10/11 00:57:15;;;;;;;5.93;2.97;;;;;;;14.01;97.51;100199.03;5096568;28;20044;-72
2023/10/11 00:59:44;;;;;;;3.05;2.15;;;;;;;14.01;97.80;100193.91;5095668;28;20075;-72
2023/10/11 01:02:15;;;;;;;1.80;1.60;;;;;;;14.03;98.08;100185.34;5096294;28;20043;-72
2023/10/11 01:04:45;;;;;;;4.10;3.70;;;;;;;14.04;97.40;100186.16;5095323;28;20048;-72
2023/10/11 01:07:14;;;;;;;6.63;3.45;;;;;;;14.01;97.64;100189.59;5096359;28;20051;-72
2023/10/11 01:09:43;;;;;;;4.23;3.73;;;;;;;14.00;97.47;100194.75;5094946;28;20105;-72
2023/10/11 01:12:13;;;;;;;;;;;;;;;14.01;97.55;100191.34;5095790;28;20044;-72
2023/10/11 01:14:56;;;;;;;2.25;1.88;;;;;;;14.01;97.85;100196.47;5096263;28;19920;-72
2023/10/11 01:17:31;;;;;;;2.03;1.65;;;;;;;14.02;98.05;100183.63;5095115;28;20135;-72
2023/10/11 01:20:07;;;;;;;2.88;2.60;;;;;;;13.99;97.70;100183.63;5096041;28;20109;-72
2023/10/11 01:22:38;;;;;;;3.13;2.67;;;;;;;14.00;97.81;100184.50;5096231;28;20044;-71
2023/10/11 01:25:07;;;;;;;3.03;2.63;;;;;;;14.03;97.84;100184.47;5094834;28;20048;-71
2023/10/11 01:27:37;;;;;;;1.73;1.50;;;;;;;14.05;98.07;100193.03;5096558;28;20032;-72
2023/10/11 01:30:09;;;;;;;2.33;1.85;;;;;;;14.06;97.75;100190.44;5096317;28;20086;-73
2023/10/11 01:32:41;;;;;;;2.58;1.98;;;;;;;14.07;98.30;100193.84;5095760;28;20083;-71
2023/10/11 01:35:12;;;;;;;4.07;3.58;;;;;;;14.04;97.81;100202.44;5094957;28;20093;-73
2023/10/11 01:37:43;;;;;;;9.32;2.05;;;;;;;14.04;97.77;100199.84;5096059;28;20143;-73
2023/10/11 01:40:20;;;;;;;5.32;4.78;;;;;;;14.03;98.22;100199.88;5096310;28;20393;-72
2023/10/11 01:42:50;;;;;;;7.93;2.67;;;;;;;14.06;98.20;100200.69;5095634;28;20093;-71
2023/10/11 01:45:19;;;;;;;;;;;;;;;14.06;97.94;100202.41;5096278;28;20067;-72
2023/10/11 01:47:50;;;;;;;2.25;1.25;;;;;;;14.08;97.87;100201.53;5096076;28;19985;-72
2023/10/11 01:50:20;;;;;;;4.78;2.67;;;;;;;14.09;98.21;100199.81;5095748;28;20120;-72
2023/10/11 01:52:50;;;;;;;1.58;1.45;;;;;;;14.08;97.91;100193.84;5095482;28;20066;-72
2023/10/11 01:55:19;;;;;;;2.60;2.38;;;;;;;14.07;98.36;100193.84;5094287;28;20044;-73
2023/10/11 01:57:50;;;;;;;4.88;2.95;;;;;;;14.08;98.38;100200.72;5095346;28;20036;-73
2023/10/11 02:00:24;;;;;;;2.72;2.42;;;;;;;14.10;97.84;100192.13;5094029;28;20040;-72
2023/10/11 02:02:56;;;;;;;9.30;2.20;;;;;;;14.10;97.80;100202.41;5095164;28;20041;-73
2023/10/11 02:05:26;;;;;;;3.45;2.72;;;;;;;14.07;98.00;100199.84;5093964;28;20064;-72
2023/10/11 02:07:56;;;;;;;2.47;1.98;;;;;;;14.01;97.80;100204.19;5095456;28;20052;-72
2023/10/11 02:10:26;;;;;;;3.03;2.65;;;;;;;13.99;98.39;100193.03;5094803;28;20052;-72
2023/10/11 02:12:57;;;;;;;2.22;2.05;;;;;;;13.98;98.38;100193.91;5094007;28;20097;-72
2023/10/11 02:15:28;;;;;;;9.18;3.13;;;;;;;13.96;97.96;100193.91;5093760;28;20040;-72
2023/10/11 02:17:58;;;;;;;4.13;1.92;;;;;;;13.98;98.31;100197.34;5093942;28;20450;-73
2023/10/11 02:20:28;;;;;;;2.30;1.98;;;;;;;14.02;98.66;100208.44;5093995;28;20075;-73
2023/10/11 02:23:00;;;;;;;5.43;2.85;;;;;;;14.03;98.08;100210.16;5094787;28;20044;-72
2023/10/11 02:25:29;;;;;;;2.08;1.67;;;;;;;14.00;97.99;100207.59;5095102;28;20063;-72
2023/10/11 02:27:58;;;;;;;5.47;3.47;;;;;;;14.00;98.33;100205.03;5094717;28;20127;-72
2023/10/11 02:30:27;;;;;;;5.63;3.42;;;;;;;14.03;98.57;100200.75;5093585;28;20046;-72
2023/10/11 02:32:58;;;;;;;4.20;2.22;;;;;;;14.06;98.67;100199.84;5094486;28;20391;-73
2023/10/11 02:35:28;;;;;;;2.72;2.13;;;;;;;14.05;98.42;100198.16;5094924;28;20461;-72
2023/10/11 02:37:59;;;;;;;3.83;2.35;;;;;;;14.06;98.62;100197.28;5095145;28;20093;-73
2023/10/11 02:40:30;;;;;;;4.53;2.92;;;;;;;14.06;98.44;100199.84;5094553;28;20131;-72
2023/10/11 02:43:03;;;;;;;2.83;2.47;;;;;;;14.04;98.35;100202.44;5094451;28;20040;-73
2023/10/11 02:45:34;;;;;;;2.33;2.13;;;;;;;14.04;98.06;100201.56;5094510;28;20494;-72
2023/10/11 02:48:10;;;;;;;6.43;3.13;;;;;;;14.03;98.29;100189.63;5094702;28;20438;-73
2023/10/11 02:50:43;;;;;;;3.42;3.10;;;;;;;13.99;98.21;100198.19;5094659;28;20047;-71
2023/10/11 02:53:22;;;;;;;6.82;3.60;;;;;;;13.94;98.16;100199.94;5094234;28;20040;-72
2023/10/11 02:58:30;;;;;;;4.10;2.97;;;;;;;13.84;98.21;100198.28;5093151;28;20071;-73
2023/10/11 03:01:04;;;;;;;4.22;3.33;;;;;;;13.83;98.18;100194.00;5094148;28;20040;-72
2023/10/11 03:03:53;;;;;;;2.53;2.20;;;;;;;13.84;98.47;100193.16;5094287;28;20139;-72
2023/10/11 03:06:28;;;;;;;4.38;2.92;;;;;;;13.87;98.40;100195.69;5093033;28;20075;-71
2023/10/11 03:08:58;;;;;;;3.33;2.95;;;;;;;13.87;98.57;100187.97;5094484;28;20132;-72
2023/10/11 03:11:29;;;;;;;2.72;2.50;;;;;;;13.86;98.29;100179.47;5094391;28;20145;-73
2023/10/11 03:14:04;;;;;;;2.83;2.03;;;;;;;13.88;97.63;100179.44;5092712;28;20138;-72
2023/10/11 03:16:33;;;;;;;2.17;1.92;;;;;;;13.89;98.02;100176.84;5093859;28;20052;-73
2023/10/11 03:19:05;;;;;;;3.63;3.15;;;;;;;13.90;98.18;100177.72;5093945;28;20047;-73
2023/10/11 03:21:34;;;;;;;6.55;2.88;;;;;;;13.91;98.19;100174.28;5093904;28;20044;-73
2023/10/11 03:24:06;;;;;;;2.65;2.45;;;;;;;13.87;97.93;100172.59;5093333;28;20048;-72
2023/10/11 03:26:38;;;;;;;9.43;2.40;;;;;;;13.90;97.90;100177.72;5093773;28;20048;-72
2023/10/11 03:29:17;;;;;;;1.60;1.40;;;;;;;13.88;98.21;100175.16;5093820;28;20059;-73
2023/10/11 03:31:48;;;;;;;3.80;2.97;;;;;;;13.87;97.48;100172.59;5093955;28;20044;-72
2023/10/11 03:34:20;;;;;;;4.57;3.00;;;;;;;13.87;97.56;100170.88;5093738;28;20052;-71
2023/10/11 03:36:53;;;;;;;5.25;3.22;;;;;;;13.89;98.11;100176.03;5093948;28;20044;-72
2023/10/11 03:39:39;;;;;;;2.85;2.25;;;;;;;13.90;98.11;100170.00;5093663;28;20517;-73
2023/10/11 03:42:14;;;;;;;2.15;1.85;;;;;;;13.91;97.83;100171.72;5093673;28;20486;-73
2023/10/11 03:44:47;;;;;;;4.75;3.83;;;;;;;13.92;97.41;100168.28;5093463;28;20040;-72
2023/10/11 03:47:23;;;;;;;2.80;2.55;;;;;;;13.88;97.45;100164.03;5093849;28;20048;-72
2023/10/11 03:49:53;;;;;;;2.33;2.13;;;;;;;13.84;97.51;100162.38;5093574;28;20048;-73
2023/10/11 03:52:24;;;;;;;6.40;1.37;;;;;;;13.84;97.39;100162.38;5093896;28;20044;-72
2023/10/11 03:55:04;;;;;;;2.53;2.33;;;;;;;13.80;97.68;100161.53;5093490;28;20289;-72
2023/10/11 03:57:37;;;;;;;;;;;;;;;13.78;97.56;100159.81;5093770;28;20044;-72
2023/10/11 04:00:24;;;;;;;2.30;2.03;;;;;;;13.76;97.24;100159.84;5093761;28;20039;-72
2023/10/11 04:02:56;;;;;;;4.63;2.50;;;;;;;13.73;97.20;100161.56;5093423;28;20046;-73
2023/10/11 04:05:34;;;;;;;3.47;3.10;;;;;;;13.68;97.40;100155.59;5093361;28;20122;-71
2023/10/11 04:08:06;;;;;;;3.28;2.78;;;;;;;13.61;97.46;100151.38;5093329;28;20078;-72
2023/10/11 04:10:42;;;;;;;2.38;2.08;;;;;;;13.58;97.92;100148.84;5092424;28;20054;-72
2023/10/11 04:13:15;;;;;;;6.45;2.75;;;;;;;13.59;97.75;100156.50;5093379;28;20561;-72
2023/10/11 04:15:49;;;;;;;2.15;1.55;;;;;;;13.63;97.66;100152.25;5093343;28;20048;-72
2023/10/11 04:18:33;;;;;;;3.50;2.03;;;;;;;13.65;98.16;100150.50;5093137;28;20123;-73
2023/10/11 04:21:16;;;;;;;10.90;2.70;;;;;;;13.66;97.80;100153.06;5093519;28;20048;-72
2023/10/11 04:23:45;;;;;;;2.40;2.00;;;;;;;13.68;98.01;100145.34;5092085;28;20410;-72
2023/10/11 04:26:26;;;;;;;2.40;2.13;;;;;;;13.68;97.77;100155.59;5093727;28;20086;-72
2023/10/11 04:28:54;;;;;;;3.72;2.50;;;;;;;13.66;97.65;100158.19;5093149;28;20052;-72
2023/10/11 04:31:30;;;;;;;1.73;1.48;;;;;;;13.63;97.68;100165.06;5092875;28;20119;-72
2023/10/11 04:34:00;;;;;;;1.95;1.85;;;;;;;13.63;97.81;100172.75;5093469;28;20052;-72
2023/10/11 04:36:29;;;;;;;6.63;4.43;;;;;;;13.58;97.76;100179.63;5096649;28;20036;-71
2023/10/11 04:39:04;;;;;;;;;;;;;;;13.55;98.08;100177.06;5097461;28;20390;-72
2023/10/11 04:41:38;;;;;;;2.38;2.17;;;;;;;13.48;97.68;100172.81;5096852;28;19963;-73
2023/10/11 04:44:13;;;;;;;3.53;1.88;;;;;;;13.50;97.79;100169.38;5096771;28;20048;-72
2023/10/11 04:46:44;;;;;;;2.97;2.65;;;;;;;13.54;98.37;100172.78;5097182;28;20044;-71
2023/10/11 04:49:21;;;;;;;8.02;3.05;;;;;;;13.56;98.37;100176.19;5096491;28;20568;-72
2023/10/11 04:51:55;;;;;;;3.55;2.97;;;;;;;13.58;98.50;100179.63;5097026;28;20384;-71
2023/10/11 04:54:35;;;;;;;4.95;3.25;;;;;;;13.58;98.09;100179.63;5096585;28;20051;-72
2023/10/11 04:57:17;;;;;;;6.30;3.53;;;;;;;13.61;98.67;100169.31;5096561;28;20059;-72
2023/10/11 04:59:46;;;;;;;2.42;1.60;;;;;;;13.63;98.28;100173.59;5096715;28;20401;-72
2023/10/11 05:02:24;;;;;;;6.43;1.52;;;;;;;13.61;97.98;100166.75;5096765;28;20044;-73
2023/10/11 05:04:54;;;;;;;2.50;1.88;;;;;;;13.57;98.20;100173.63;5096335;28;20067;-73
2023/10/11 05:07:25;;;;;;;3.92;3.17;;;;;;;13.57;98.23;100168.50;5096313;28;20044;-71
2023/10/11 05:09:56;;;;;;;3.05;2.72;;;;;;;13.57;98.30;100177.91;5096204;28;20101;-72
2023/10/11 05:12:27;;;;;;;5.35;2.15;;;;;;;13.58;98.56;100169.34;5096559;28;20075;-72
2023/10/11 05:15:06;;;;;;;1.27;1.13;;;;;;;13.60;98.24;100175.31;5096620;28;20040;-72
2023/10/11 05:17:41;;;;;;;2.42;2.15;;;;;;;13.66;98.48;100188.09;5095278;28;20497;-73
2023/10/11 05:22:52;;;;;;;17.33;3.58;;;;;;;13.69;98.29;100195.78;5096689;28;20044;-72
2023/10/11 05:28:26;;;;;;;4.10;2.75;;;;;;;13.65;97.97;100199.25;5096386;28;20040;-72
2023/10/11 05:31:19;;;;;;;4.57;2.97;;;;;;;13.62;98.15;100204.38;5095877;28;20051;-72
2023/10/11 05:36:40;;;;;;;1.23;1.13;;;;;;;13.57;98.07;100203.53;5095803;28;20056;-72
2023/10/11 05:52:25;;;;;;;4.70;2.30;;;;;;;13.54;98.09;100218.94;5107694;28;20042;-72
2023/10/11 05:54:54;;;;;;;2.10;1.88;;;;;;;13.54;98.40;100218.94;5116086;28;20485;-72
2023/10/11 05:57:26;;;;;;;2.57;2.23;;;;;;;13.52;97.93;100220.66;5116239;28;20450;-71
2023/10/11 06:00:04;;;;;;;4.97;3.42;;;;;;;13.47;97.60;100217.25;5114695;28;20086;-71
2023/10/11 06:02:33;;;;;;;3.17;1.73;;;;;;;13.43;97.93;100219.84;5115567;28;20109;-72
2023/10/11 06:05:02;;;;;;;2.13;1.93;;;;;;;13.42;97.83;100220.69;5115470;28;20047;-71
2023/10/11 06:07:37;;;;;;;1.83;1.67;;;;;;;13.40;97.71;100227.56;5108662;28;20692;-71
2023/10/11 06:10:08;;;;;;;4.88;4.43;;;;;;;13.43;97.47;100225.00;5094869;28;20040;-71
2023/10/11 06:12:37;;;;;;;1.35;1.25;;;;;;;13.46;97.70;100226.66;5094865;28;20134;-71
2023/10/11 06:15:16;;;;;;;1.30;1.20;;;;;;;13.48;97.43;100224.09;5102682;27;20497;-71
2023/10/11 06:17:49;;;;;;;;;;;;;;;13.53;97.53;100222.38;5095382;28;20285;-71
2023/10/11 06:20:26;;;;;;;1.17;1.13;;;;;;;13.59;97.62;100222.34;5094680;28;19920;-73
2023/10/11 06:22:56;;;;;;;10.63;2.83;;;;;;;13.67;97.86;100230.88;5094901;28;20417;-71
2023/10/11 06:25:49;;;;;;;4.00;2.25;;;;;;;13.71;97.70;100228.28;5094215;28;20051;-72
2023/10/11 06:28:16;;;;;;;4.05;3.58;;;;;;;13.74;97.38;100228.28;5093956;28;20036;-71
2023/10/11 06:30:47;;;;;;;5.63;3.25;;;;;;;13.81;97.38;100223.97;5094112;28;20044;-71
2023/10/11 06:33:21;;;;;;;2.53;1.92;;;;;;;13.85;97.60;100231.63;5094901;28;20048;-71
2023/10/11 06:35:50;;;;;;;4.15;2.88;;;;;;;13.90;97.52;100239.28;5094905;28;20048;-71
2023/10/11 06:38:21;;;;;;;4.43;2.78;;;;;;;13.91;97.82;100241.00;5093552;28;20064;-71
2023/10/11 06:40:54;;;;;;;3.58;3.28;;;;;;;14.00;98.02;100240.97;5094504;28;20154;-71
2023/10/11 06:43:23;;;;;;;2.45;2.25;;;;;;;14.09;97.98;100240.91;5094491;28;20135;-71
2023/10/11 06:45:53;;;;;;;4.95;3.45;;;;;;;14.14;97.86;100249.44;5094220;28;20118;-71
2023/10/11 06:48:25;;;;;;;2.50;2.28;;;;;;;14.18;97.40;100245.97;5094577;28;20078;-71
2023/10/11 06:50:54;;;;;;;2.13;1.73;;;;;;;14.27;97.58;100245.94;5092659;28;20424;-71
2023/10/11 06:53:23;;;;;;;12.57;4.93;;;;;;;14.41;97.60;100251.84;5094262;28;20035;-71
2023/10/11 06:55:53;;;;;;;5.70;3.85;;;;;;;14.50;97.57;100246.66;5094318;28;20131;-71
2023/10/11 06:58:22;;;;;;;2.72;2.53;;;;;;;14.58;97.65;100254.31;5093765;28;20151;-71
2023/10/11 07:00:53;;;;;;;5.13;2.30;;;;;;;14.66;97.26;100247.41;5094514;28;20047;-71
2023/10/11 07:03:28;;;;;;;3.90;3.30;;;;;;;14.73;97.48;100242.16;5094458;28;20044;-71
2023/10/11 07:06:00;;;;;;;4.57;4.18;;;;;;;14.88;97.10;100245.47;5098147;28;20489;-71
2023/10/11 07:08:35;;;;;;;7.68;5.82;;;;;;;14.98;96.93;100241.94;5093925;28;20044;-71
2023/10/11 07:11:16;;;;;;;4.63;4.22;;;;;;;15.07;96.58;100244.44;5099695;28;20493;-70
2023/10/11 07:13:54;;;;;;;3.13;2.40;;;;;;;15.14;96.55;100246.91;5114418;28;20048;-71
2023/10/11 07:16:27;;;;;;;2.35;2.03;;;;;;;15.19;96.39;100247.72;5098699;28;20127;-71
2023/10/11 07:18:58;;;;;;;5.20;3.00;;;;;;;15.22;95.85;100241.69;5093510;28;20363;-71
2023/10/11 07:21:48;;;;;;;5.88;3.70;;;;;;;15.23;95.15;100239.13;5101498;28;20031;-70
2023/10/11 07:24:31;;;;;;;5.32;1.95;;;;;;;15.35;95.31;100243.28;5108659;28;20393;-70
2023/10/11 07:27:09;;;;;;;4.18;3.17;;;;;;;15.37;94.67;100236.41;5093763;28;20467;-70
2023/10/11 07:29:42;;;;;;;3.33;1.95;;;;;;;15.46;94.31;100241.47;5093653;28;20047;-70
2023/10/11 07:32:18;;;;;;;1.70;1.45;;;;;;;15.48;94.17;100239.72;5093651;28;20109;-70
2023/10/11 07:34:54;;;;;;;2.97;2.45;;;;;;;15.50;93.50;100240.56;5093786;28;20051;-70
2023/10/11 07:37:26;;;;;;;8.10;3.28;;;;;;;15.56;93.08;100240.50;5093913;28;20055;-70
2023/10/11 07:40:00;;;;;;;4.55;3.28;;;;;;;15.56;92.75;100232.78;5093954;28;20378;-70
2023/10/11 07:42:37;;;;;;;2.25;2.08;;;;;;;15.55;92.37;100236.22;5093548;28;20131;-71
2023/10/11 07:45:12;;;;;;;3.65;2.15;;;;;;;15.61;92.17;100232.72;5091776;28;20051;-72
2023/10/11 07:47:45;;;;;;;4.50;3.28;;;;;;;15.62;91.85;100237.84;5093718;28;20409;-72
2023/10/11 07:50:22;;;;;;;3.45;2.75;;;;;;;15.72;91.41;100231.72;5093540;28;20109;-72
2023/10/11 07:52:52;;;;;;;3.13;1.60;;;;;;;15.85;91.41;100225.53;5093711;28;20097;-72
2023/10/11 07:55:26;;;;;;;3.05;2.70;;;;;;;15.94;91.03;100225.41;5101374;28;20048;-72
2023/10/11 07:58:00;;;;;;;7.13;4.10;;;;;;;16.07;90.87;100232.09;5114451;28;20067;-72
2023/10/11 08:00:30;;;;;;;5.13;4.03;;;;;;;16.18;90.27;100233.66;5103151;28;20040;-70
2023/10/11 08:03:04;;;;;;;2.63;2.20;;;;;;;16.16;89.98;100231.13;5092072;28;20051;-70
2023/10/11 08:05:36;;;;;;;2.85;2.17;;;;;;;16.19;89.67;100225.06;5093258;28;20036;-71
2023/10/11 08:08:06;;;;;;;3.03;2.30;;;;;;;16.26;89.29;100226.69;5093626;28;20047;-70
2023/10/11 08:10:35;;;;;;;4.28;2.58;;;;;;;16.42;89.17;100222.97;5106326;28;20089;-70
2023/10/11 08:13:04;;;;;;;3.80;1.88;;;;;;;16.48;88.77;100228.91;5117768;28;20040;-71
2023/10/11 08:15:38;;;;;;;;;;;;;;;16.56;88.33;100227.06;5118214;28;20061;-71
2023/10/11 08:18:08;;;;;;;5.28;4.75;;;;;;;16.49;87.65;100224.59;5118114;28;19920;-71
2023/10/11 08:20:39;;;;;;;5.80;2.15;;;;;;;16.56;87.81;100231.38;5113294;28;20058;-70
2023/10/11 08:23:08;;;;;;;3.13;2.78;;;;;;;16.70;87.39;100230.28;5118201;28;20071;-70
2023/10/11 08:25:39;;;;;;;6.75;2.47;;;;;;;16.80;87.00;100228.38;5116181;28;20050;-71
2023/10/11 08:28:19;;;;;;;1.55;1.45;;;;;;;16.83;86.43;100223.19;5117477;28;20130;-70
2023/10/11 08:30:47;;;;;;;;;;;;;;;16.84;86.31;100222.31;5116782;28;20104;-71
2023/10/11 08:33:16;;;;;;;3.97;2.43;;;;;;;16.95;85.80;100220.41;5117544;28;20383;-70
2023/10/11 08:35:51;;;;;;;1.83;1.70;;;;;;;17.08;85.72;100216.72;5104143;28;20072;-71
2023/10/11 08:38:24;;;;;;;4.95;3.00;;;;;;;17.19;85.41;100209.63;5096882;28;20040;-70
2023/10/11 08:40:58;;;;;;;3.20;2.17;;;;;;;17.26;84.93;100211.22;5101991;28;20059;-70
2023/10/11 08:43:28;;;;;;;2.75;1.88;;;;;;;17.43;84.56;100216.88;5117269;27;20058;-70
2023/10/11 08:46:05;;;;;;;4.90;2.65;;;;;;;17.53;84.33;100209.00;5117363;28;20040;-70
2023/10/11 08:48:38;;;;;;;3.42;2.15;;;;;;;17.63;83.72;100205.34;5117454;27;20104;-70
2023/10/11 08:51:13;;;;;;;1.13;1.08;;;;;;;17.79;83.33;100206.72;5097434;28;20394;-72
2023/10/11 08:53:46;;;;;;;8.23;2.63;;;;;;;17.93;82.97;100209.84;5096939;28;20070;-70
2023/10/11 08:56:16;;;;;;;2.50;2.03;;;;;;;17.99;82.34;100210.56;5096653;28;20071;-70
2023/10/11 08:58:51;;;;;;;4.03;2.85;;;;;;;18.01;82.00;100208.78;5096754;28;20131;-70
2023/10/11 09:01:24;;;;;;;2.55;1.90;;;;;;;18.12;81.59;100205.94;5095361;28;20044;-70
2023/10/11 09:04:11;;;;;;;6.43;2.20;;;;;;;18.14;80.46;100209.34;5096437;28;20044;-73
2023/10/11 09:06:44;;;;;;;2.47;1.73;;;;;;;18.13;80.24;100202.50;5096248;28;20051;-71
2023/10/11 09:09:33;;;;;;;1.70;1.30;;;;;;;18.18;79.38;100202.38;5096156;28;20059;-72
2023/10/11 09:12:20;;;;;;;1.77;1.67;;;;;;;18.27;79.05;100205.59;5104949;28;20044;-72
2023/10/11 09:14:58;;;;;;;1.63;1.30;;;;;;;18.42;78.70;100205.25;5096439;28;20051;-70
2023/10/11 09:17:28;;;;;;;1.38;1.17;;;;;;;18.56;78.39;100199.75;5096123;28;20040;-72
2023/10/11 09:19:59;;;;;;;1.85;1.58;;;;;;;18.66;78.13;100209.00;5101878;28;20562;-70
2023/10/11 09:22:52;;;;;;;8.50;1.45;;;;;;;18.77;77.44;100203.53;5115021;28;20048;-70
2023/10/11 09:25:24;;;;;;;2.47;1.98;;;;;;;18.89;77.19;100192.88;5116340;28;20044;-71
2023/10/11 09:27:56;;;;;;;2.15;1.55;;;;;;;18.97;76.98;100201.28;5116165;28;20059;-70
2023/10/11 09:30:27;;;;;;;3.17;2.08;;;;;;;19.00;76.08;100196.03;5115041;28;20104;-70
2023/10/11 09:33:15;;;;;;;3.60;2.95;;;;;;;18.99;76.07;100199.50;5115942;28;20047;-69
2023/10/11 09:35:49;;;;;;;3.05;1.70;;;;;;;19.05;76.23;100194.19;5115107;28;20489;-69
2023/10/11 09:38:19;;;;;;;3.63;2.88;;;;;;;19.18;76.48;100205.88;5114896;28;20039;-71
2023/10/11 09:41:00;;;;;;;1.55;1.45;;;;;;;19.13;76.18;100202.56;5099310;28;20135;-70
2023/10/11 09:43:32;;;;;;;2.05;1.42;;;;;;;19.12;76.06;100195.72;5104799;28;20036;-70
2023/10/11 09:46:03;;;;;;;4.97;2.65;;;;;;;18.99;75.69;100196.91;5093966;28;20036;-71
2023/10/11 09:48:36;;;;;;;3.63;1.95;;;;;;;19.16;75.73;100202.50;5095045;28;20398;-70
2023/10/11 09:51:09;;;;;;;1.75;1.58;;;;;;;19.27;75.59;100192.69;5095578;28;20524;-71
2023/10/11 09:53:49;;;;;;;2.97;2.67;;;;;;;19.42;75.48;100194.03;5095372;28;20050;-69
2023/10/11 09:56:35;;;;;;;2.40;2.15;;;;;;;19.46;75.25;100193.88;5095333;28;20056;-69
2023/10/11 09:59:23;;;;;;;2.67;1.98;;;;;;;19.47;75.60;100194.75;5095432;28;20047;-69
2023/10/11 10:02:03;;;;;;;3.63;2.20;;;;;;;19.54;75.05;100191.94;5095202;28;20470;-69
2023/10/11 10:04:57;;;;;;;3.42;2.08;;;;;;;19.76;74.45;100200.78;5095839;28;20094;-71
2023/10/11 10:07:32;;;;;;;3.08;1.45;;;;;;;19.74;73.88;100199.13;5094561;28;20048;-70
2023/10/11 10:10:03;;;;;;;3.38;2.58;;;;;;;19.72;73.77;100191.41;5094544;28;20063;-71
2023/10/11 10:12:34;;;;;;;0.77;0.73;;;;;;;19.71;73.95;100189.72;5094948;28;20139;-71
2023/10/11 10:15:12;;;;;;;1.98;1.80;;;;;;;19.76;73.74;100185.25;5095028;28;20119;-71
2023/10/11 10:18:12;;;;;;;1.88;1.40;;;;;;;19.88;73.66;100184.88;5095317;28;20052;-70
2023/10/11 10:20:43;;;;;;;3.10;1.52;;;;;;;20.05;73.30;100177.44;5094824;28;20044;-70
2023/10/11 10:23:29;;;;;;;2.00;1.55;;;;;;;19.90;73.25;100177.91;5094862;28;20048;-70
2023/10/11 10:26:21;;;;;;;3.25;1.90;;;;;;;19.81;73.44;100180.78;5096143;28;20051;-70
2023/10/11 10:28:57;;;;;;;3.13;2.22;;;;;;;19.84;73.86;100175.47;5115513;28;20500;-70
2023/10/11 10:31:26;;;;;;;3.53;2.53;;;;;;;19.73;73.57;100172.38;5094315;28;20055;-70
2023/10/11 10:34:21;;;;;;;2.05;1.85;;;;;;;19.56;73.60;100172.03;5093119;28;20051;-71
2023/10/11 10:36:52;;;;;;;2.38;2.17;;;;;;;19.56;73.83;100174.63;5093461;28;20078;-71
2023/10/11 10:42:12;;;;;;;1.57;1.47;;;;;;;19.50;73.71;100161.84;5093547;28;20051;-71
2023/10/11 10:44:52;;;;;;;2.63;1.85;;;;;;;19.46;74.48;100162.81;5093541;28;20051;-70
2023/10/11 10:47:25;;;;;;;0.93;0.93;;;;;;;19.54;74.76;100160.88;5094277;28;20504;-73
2023/10/11 10:49:55;;;;;;;3.85;1.83;;;;;;;19.75;74.58;100155.03;5091900;28;20489;-72
2023/10/11 10:52:26;;;;;;;3.97;1.40;;;;;;;20.10;74.20;100148.78;5093632;28;20056;-74
2023/10/11 10:55:01;;;;;;;2.35;1.48;;;;;;;20.33;73.62;100145.44;5094253;28;20048;-72
2023/10/11 10:57:37;;;;;;;1.83;1.52;;;;;;;20.43;72.86;100144.25;5092733;28;20048;-71
2023/10/11 11:00:21;;;;;;;2.72;2.00;;;;;;;20.51;72.36;100137.06;5094382;28;20117;-71
2023/10/11 11:02:50;;;;;;;1.02;0.95;;;;;;;20.58;72.32;100128.19;5095593;28;20048;-71
2023/10/11 11:05:25;;;;;;;1.95;1.60;;;;;;;20.59;71.98;100120.34;5114385;28;20043;-71
2023/10/11 11:08:15;;;;;;;2.40;1.88;;;;;;;20.64;71.94;100125.34;5114686;28;20447;-72
2023/10/11 11:10:54;;;;;;;2.38;1.73;;;;;;;20.68;71.51;100124.38;5114342;28;20138;-69
2023/10/11 11:13:25;;;;;;;;;;;;;;;20.68;70.91;100121.78;5109304;28;20485;-71
2023/10/11 11:15:56;;;;;;;4.07;2.38;;;;;;;20.60;70.68;100114.25;5094820;28;19947;-72
2023/10/11 11:18:32;;;;;;;1.95;1.58;;;;;;;20.70;70.50;100112.19;5093827;28;20047;-69
2023/10/11 11:21:17;;;;;;;1.15;1.05;;;;;;;20.78;70.17;100115.34;5110619;28;20043;-73
2023/10/11 11:23:49;;;;;;;8.18;1.42;;;;;;;20.91;69.76;100116.63;5114541;28;20047;-72
2023/10/11 11:26:21;;;;;;;5.43;2.42;;;;;;;20.94;69.03;100118.25;5114355;28;20051;-72
2023/10/11 11:29:11;;;;;;;1.63;1.45;;;;;;;21.06;68.87;100115.25;5114047;28;20054;-70
2023/10/11 11:31:52;;;;;;;1.30;1.20;;;;;;;21.16;68.51;100120.03;5093574;28;20440;-74
2023/10/11 11:34:28;;;;;;;1.92;1.77;;;;;;;21.16;68.03;100117.44;5093577;28;20117;-71
2023/10/11 11:36:57;;;;;;;6.53;1.85;;;;;;;21.13;67.98;100107.19;5094533;28;20123;-71
2023/10/11 11:39:36;;;;;;;2.28;1.55;;;;;;;21.25;67.57;100106.72;5093339;28;20044;-72
2023/10/11 11:42:09;;;;;;;1.75;1.40;;;;;;;21.23;67.41;100108.53;5093942;28;20456;-71
2023/10/11 11:44:38;;;;;;;3.45;2.40;;;;;;;21.24;67.64;100110.22;5106267;28;20081;-72
2023/10/11 11:47:07;;;;;;;1.27;1.08;;;;;;;21.29;67.44;100097.91;5113882;28;20041;-73
2023/10/11 11:49:36;;;;;;;9.38;2.38;;;;;;;21.49;67.57;100093.72;5113067;28;20027;-69
2023/10/11 11:52:04;;;;;;;2.47;2.13;;;;;;;21.52;66.85;100088.41;5114097;28;20067;-74
2023/10/11 11:54:33;;;;;;;1.33;1.23;;;;;;;21.59;66.72;100082.06;5112600;28;20050;-73
2023/10/11 11:57:07;;;;;;;1.73;1.00;;;;;;;21.65;66.59;100084.41;5113756;28;20071;-74
2023/10/11 11:59:38;;;;;;;1.90;1.58;;;;;;;21.76;66.71;100071.84;5109702;28;20405;-72
2023/10/11 12:02:16;;;;;;;2.42;1.48;;;;;;;21.80;66.24;100073.41;5114020;28;20071;-71
2023/10/11 12:04:47;;;;;;;11.57;2.60;;;;;;;21.80;66.35;100068.22;5114141;28;20055;-73
2023/10/11 12:07:17;;;;;;;1.77;0.75;;;;;;;21.87;66.48;100064.50;5113605;28;20052;-72
2023/10/11 12:09:45;;;;;;;1.63;1.52;;;;;;;22.01;66.35;100063.00;5112271;28;20066;-72
2023/10/11 12:12:31;;;;;;;1.50;1.30;;;;;;;21.97;66.32;100071.88;5113795;28;20416;-73
2023/10/11 12:15:02;;;;;;;1.40;1.30;;;;;;;21.88;66.43;100064.41;5113957;28;20048;-71
2023/10/11 12:17:32;;;;;;;1.60;1.50;;;;;;;21.78;66.28;100067.44;5112433;28;20093;-73
2023/10/11 12:20:12;;;;;;;1.23;1.10;;;;;;;21.78;66.30;100070.03;5113783;28;20093;-71
2023/10/11 12:22:42;;;;;;;1.33;1.23;;;;;;;21.81;66.40;100069.91;5114066;28;20153;-73
2023/10/11 12:25:12;;;;;;;16.48;2.78;;;;;;;21.93;66.27;100079.84;5113422;28;20048;-73